createdAt,value
2018-09-17T00:00:24.212Z,1013.39
2018-09-17T00:00:50.349Z,1013.43
2018-09-17T00:01:16.487Z,1013.42
2018-09-17T00:01:42.616Z,1013.42
2018-09-17T00:02:08.757Z,1013.41
2018-09-17T00:02:34.884Z,1013.4
2018-09-17T00:03:01.040Z,1013.38
2018-09-17T00:03:27.172Z,1013.38
2018-09-17T00:03:53.335Z,1013.4
2018-09-17T00:04:19.461Z,1013.39
2018-09-17T00:04:45.595Z,1013.38
2018-09-17T00:05:11.722Z,1013.38
2018-09-17T00:05:37.853Z,1013.34
2018-09-17T00:06:03.983Z,1013.36
2018-09-17T00:06:30.117Z,1013.34
2018-09-17T00:06:56.281Z,1013.33
2018-09-17T00:07:22.415Z,1013.35
2018-09-17T00:07:48.565Z,1013.38
2018-09-17T00:08:14.718Z,1013.36
2018-09-17T00:08:40.849Z,1013.35
2018-09-17T00:09:07.007Z,1013.37
2018-09-17T00:09:33.168Z,1013.33
2018-09-17T00:09:59.297Z,1013.34
2018-09-17T00:10:25.432Z,1013.35
2018-09-17T00:10:51.569Z,1013.36
2018-09-17T00:11:17.726Z,1013.36
2018-09-17T00:11:43.881Z,1013.37
2018-09-17T00:12:10.018Z,1013.36
2018-09-17T00:12:36.178Z,1013.34
2018-09-17T00:13:02.346Z,1013.35
2018-09-17T00:13:28.483Z,1013.36
2018-09-17T00:13:54.618Z,1013.33
2018-09-17T00:14:20.762Z,1013.36
2018-09-17T00:14:46.945Z,1013.36
2018-09-17T00:15:13.075Z,1013.33
2018-09-17T00:15:39.214Z,1013.32
2018-09-17T00:16:05.346Z,1013.34
2018-09-17T00:16:31.478Z,1013.31
2018-09-17T00:16:57.628Z,1013.32
2018-09-17T00:17:23.764Z,1013.34
2018-09-17T00:17:49.886Z,1013.34
2018-09-17T00:18:16.019Z,1013.32
2018-09-17T00:18:42.149Z,1013.33
2018-09-17T00:19:08.284Z,1013.33
2018-09-17T00:19:34.421Z,1013.33
2018-09-17T00:20:00.550Z,1013.37
2018-09-17T00:20:26.703Z,1013.36
2018-09-17T00:20:52.836Z,1013.37
2018-09-17T00:21:18.969Z,1013.3
2018-09-17T00:21:45.109Z,1013.33
2018-09-17T00:22:11.244Z,1013.35
2018-09-17T00:22:37.400Z,1013.32
2018-09-17T00:23:03.524Z,1013.34
2018-09-17T00:23:29.670Z,1013.36
2018-09-17T00:23:55.793Z,1013.37
2018-09-17T00:24:21.929Z,1013.34
2018-09-17T00:24:48.080Z,1013.34
2018-09-17T00:25:14.218Z,1013.36
2018-09-17T00:25:40.373Z,1013.31
2018-09-17T00:26:06.526Z,1013.35
2018-09-17T00:26:32.666Z,1013.37
2018-09-17T00:26:58.819Z,1013.4
2018-09-17T00:27:24.943Z,1013.4
2018-09-17T00:27:51.081Z,1013.37
2018-09-17T00:28:17.220Z,1013.4
2018-09-17T00:28:43.353Z,1013.39
2018-09-17T00:29:09.490Z,1013.4
2018-09-17T00:29:35.627Z,1013.41
2018-09-17T00:30:01.780Z,1013.44
2018-09-17T00:30:27.957Z,1013.39
2018-09-17T00:30:54.094Z,1013.45
2018-09-17T00:31:20.231Z,1013.4
2018-09-17T00:31:46.386Z,1013.4
2018-09-17T00:32:12.545Z,1013.41
2018-09-17T00:32:38.678Z,1013.4
2018-09-17T00:33:04.814Z,1013.38
2018-09-17T00:33:30.952Z,1013.35
2018-09-17T00:33:57.089Z,1013.35
2018-09-17T00:34:23.264Z,1013.34
2018-09-17T00:34:49.419Z,1013.33
2018-09-17T00:35:15.580Z,1013.33
2018-09-17T00:35:41.714Z,1013.32
2018-09-17T00:36:07.868Z,1013.31
2018-09-17T00:36:34.002Z,1013.29
2018-09-17T00:37:00.141Z,1013.33
2018-09-17T00:37:26.296Z,1013.36
2018-09-17T00:37:52.448Z,1013.32
2018-09-17T00:38:18.603Z,1013.32
2018-09-17T00:38:44.743Z,1013.33
2018-09-17T00:39:10.876Z,1013.33
2018-09-17T00:39:37.011Z,1013.32
2018-09-17T00:40:03.149Z,1013.34
2018-09-17T00:40:29.279Z,1013.33
2018-09-17T00:40:55.415Z,1013.33
2018-09-17T00:41:21.573Z,1013.33
2018-09-17T00:41:47.704Z,1013.32
2018-09-17T00:42:13.847Z,1013.35
2018-09-17T00:42:39.971Z,1013.34
2018-09-17T00:43:06.124Z,1013.34
2018-09-17T00:43:32.258Z,1013.36
2018-09-17T00:43:58.392Z,1013.35
2018-09-17T00:44:24.528Z,1013.35
2018-09-17T00:44:50.677Z,1013.35
2018-09-17T00:45:16.813Z,1013.35
2018-09-17T00:45:42.943Z,1013.33
2018-09-17T00:46:09.077Z,1013.3
2018-09-17T00:46:35.284Z,1013.3
2018-09-17T00:47:01.420Z,1013.31
2018-09-17T00:47:27.550Z,1013.33
2018-09-17T00:47:53.683Z,1013.33
2018-09-17T00:48:19.816Z,1013.33
2018-09-17T00:48:45.956Z,1013.3
2018-09-17T00:49:12.085Z,1013.31
2018-09-17T00:49:38.221Z,1013.31
2018-09-17T00:50:04.353Z,1013.29
2018-09-17T00:50:30.486Z,1013.32
2018-09-17T00:50:56.628Z,1013.29
2018-09-17T00:51:22.755Z,1013.31
2018-09-17T00:51:48.887Z,1013.33
2018-09-17T00:52:15.047Z,1013.34
2018-09-17T00:52:41.206Z,1013.31
2018-09-17T00:53:07.337Z,1013.34
2018-09-17T00:53:33.477Z,1013.33
2018-09-17T00:53:59.636Z,1013.33
2018-09-17T00:54:25.796Z,1013.32
2018-09-17T00:54:51.930Z,1013.31
2018-09-17T00:55:18.089Z,1013.3
2018-09-17T00:55:44.223Z,1013.34
2018-09-17T00:56:10.369Z,1013.3
2018-09-17T00:56:36.512Z,1013.3
2018-09-17T00:57:02.638Z,1013.29
2018-09-17T00:57:28.777Z,1013.27
2018-09-17T00:57:54.964Z,1013.28
2018-09-17T00:58:21.091Z,1013.29
2018-09-17T00:58:47.229Z,1013.24
2018-09-17T00:59:13.360Z,1013.26
2018-09-17T00:59:39.518Z,1013.22
2018-09-17T01:00:05.653Z,1013.19
2018-09-17T01:00:31.787Z,1013.2
2018-09-17T01:00:57.933Z,1013.16
2018-09-17T01:01:24.078Z,1013.18
2018-09-17T01:01:50.205Z,1013.17
2018-09-17T01:02:16.335Z,1013.15
2018-09-17T01:02:42.468Z,1013.19
2018-09-17T01:03:08.594Z,1013.21
2018-09-17T01:03:34.737Z,1013.17
2018-09-17T01:04:00.884Z,1013.17
2018-09-17T01:04:27.024Z,1013.23
2018-09-17T01:04:53.160Z,1013.21
2018-09-17T01:05:19.293Z,1013.21
2018-09-17T01:05:45.420Z,1013.2
2018-09-17T01:06:11.555Z,1013.22
2018-09-17T01:06:37.710Z,1013.21
2018-09-17T01:07:03.845Z,1013.23
2018-09-17T01:07:29.988Z,1013.25
2018-09-17T01:07:56.116Z,1013.26
2018-09-17T01:08:22.264Z,1013.26
2018-09-17T01:08:48.397Z,1013.25
2018-09-17T01:09:14.531Z,1013.24
2018-09-17T01:09:40.669Z,1013.25
2018-09-17T01:10:06.805Z,1013.26
2018-09-17T01:10:32.933Z,1013.22
2018-09-17T01:10:59.089Z,1013.18
2018-09-17T01:11:25.226Z,1013.22
2018-09-17T01:11:51.360Z,1013.22
2018-09-17T01:12:17.501Z,1013.25
2018-09-17T01:12:43.632Z,1013.22
2018-09-17T01:13:09.787Z,1013.2
2018-09-17T01:13:35.930Z,1013.22
2018-09-17T01:14:02.063Z,1013.22
2018-09-17T01:14:28.224Z,1013.22
2018-09-17T01:14:54.357Z,1013.19
2018-09-17T01:15:20.490Z,1013.22
2018-09-17T01:15:46.626Z,1013.19
2018-09-17T01:16:12.761Z,1013.23
2018-09-17T01:16:38.897Z,1013.25
2018-09-17T01:17:05.030Z,1013.23
2018-09-17T01:17:31.172Z,1013.16
2018-09-17T01:17:57.321Z,1013.24
2018-09-17T01:18:23.482Z,1013.21
2018-09-17T01:18:49.619Z,1013.23
2018-09-17T01:19:15.792Z,1013.25
2018-09-17T01:19:41.938Z,1013.22
2018-09-17T01:20:08.072Z,1013.23
2018-09-17T01:20:34.204Z,1013.27
2018-09-17T01:21:00.341Z,1013.22
2018-09-17T01:21:26.472Z,1013.26
2018-09-17T01:21:52.635Z,1013.23
2018-09-17T01:22:18.778Z,1013.28
2018-09-17T01:22:44.910Z,1013.28
2018-09-17T01:23:11.042Z,1013.25
2018-09-17T01:23:37.177Z,1013.27
2018-09-17T01:24:03.318Z,1013.22
2018-09-17T01:24:29.451Z,1013.28
2018-09-17T01:24:55.584Z,1013.25
2018-09-17T01:25:21.715Z,1013.27
2018-09-17T01:25:47.865Z,1013.28
2018-09-17T01:26:14.003Z,1013.29
2018-09-17T01:26:40.130Z,1013.26
2018-09-17T01:27:06.270Z,1013.28
2018-09-17T01:27:32.404Z,1013.29
2018-09-17T01:27:58.537Z,1013.3
2018-09-17T01:28:24.692Z,1013.32
2018-09-17T01:28:50.853Z,1013.26
2018-09-17T01:29:16.986Z,1013.27
2018-09-17T01:29:43.141Z,1013.28
2018-09-17T01:30:09.275Z,1013.28
2018-09-17T01:30:35.480Z,1013.23
2018-09-17T01:31:01.565Z,1013.25
2018-09-17T01:31:27.701Z,1013.27
2018-09-17T01:31:53.861Z,1013.22
2018-09-17T01:32:19.994Z,1013.21
2018-09-17T01:32:46.123Z,1013.21
2018-09-17T01:33:12.279Z,1013.21
2018-09-17T01:33:38.409Z,1013.25
2018-09-17T01:34:04.540Z,1013.17
2018-09-17T01:34:30.674Z,1013.19
2018-09-17T01:34:56.808Z,1013.16
2018-09-17T01:35:22.967Z,1013.16
2018-09-17T01:35:49.129Z,1013.14
2018-09-17T01:36:15.297Z,1013.12
2018-09-17T01:36:41.431Z,1013.09
2018-09-17T01:37:07.564Z,1013.09
2018-09-17T01:37:33.721Z,1013.09
2018-09-17T01:37:59.941Z,1013.07
2018-09-17T01:38:26.078Z,1013.06
2018-09-17T01:38:52.229Z,1013.08
2018-09-17T01:39:18.351Z,1013.06
2018-09-17T01:39:44.481Z,1013.06
2018-09-17T01:40:10.617Z,1013.03
2018-09-17T01:40:36.744Z,1013.02
2018-09-17T01:41:02.883Z,1013
2018-09-17T01:41:29.018Z,1013.03
2018-09-17T01:41:55.152Z,1013
2018-09-17T01:42:21.315Z,1013.01
2018-09-17T01:42:47.451Z,1013
2018-09-17T01:43:13.589Z,1013
2018-09-17T01:43:39.718Z,1013.01
2018-09-17T01:44:05.898Z,1012.98
2018-09-17T01:44:32.030Z,1012.97
2018-09-17T01:44:58.160Z,1013.02
2018-09-17T01:45:24.302Z,1013
2018-09-17T01:45:50.486Z,1013.01
2018-09-17T01:46:16.721Z,1013.03
2018-09-17T01:46:42.768Z,1013.01
2018-09-17T01:47:08.903Z,1012.99
2018-09-17T01:47:35.031Z,1013.02
2018-09-17T01:48:01.165Z,1013.01
2018-09-17T01:48:27.295Z,1012.98
2018-09-17T01:48:53.433Z,1013.02
2018-09-17T01:49:19.569Z,1013
2018-09-17T01:49:45.728Z,1012.99
2018-09-17T01:50:11.863Z,1012.98
2018-09-17T01:50:37.994Z,1012.96
2018-09-17T01:51:04.121Z,1012.98
2018-09-17T01:51:30.261Z,1012.98
2018-09-17T01:51:56.393Z,1012.95
2018-09-17T01:52:22.529Z,1012.92
2018-09-17T01:52:48.669Z,1012.9
2018-09-17T01:53:14.815Z,1012.94
2018-09-17T01:53:40.947Z,1012.89
2018-09-17T01:54:07.103Z,1012.9
2018-09-17T01:54:33.238Z,1012.9
2018-09-17T01:54:59.366Z,1012.9
2018-09-17T01:55:25.498Z,1012.88
2018-09-17T01:55:51.629Z,1012.91
2018-09-17T01:56:17.791Z,1012.9
2018-09-17T01:56:43.922Z,1012.89
2018-09-17T01:57:10.103Z,1012.86
2018-09-17T01:57:36.245Z,1012.91
2018-09-17T01:58:02.385Z,1012.9
2018-09-17T01:58:28.541Z,1012.89
2018-09-17T01:58:54.670Z,1012.9
2018-09-17T01:59:20.811Z,1012.9
2018-09-17T01:59:46.964Z,1012.88
2018-09-17T02:00:13.116Z,1012.91
2018-09-17T02:00:39.252Z,1012.92
2018-09-17T02:01:05.387Z,1012.91
2018-09-17T02:01:31.536Z,1012.89
2018-09-17T02:01:57.672Z,1012.86
2018-09-17T02:02:23.834Z,1012.9
2018-09-17T02:02:49.965Z,1012.91
2018-09-17T02:03:16.128Z,1012.9
2018-09-17T02:03:42.261Z,1012.87
2018-09-17T02:04:08.399Z,1012.85
2018-09-17T02:04:34.530Z,1012.9
2018-09-17T02:05:00.685Z,1012.88
2018-09-17T02:05:26.825Z,1012.88
2018-09-17T02:05:52.951Z,1012.93
2018-09-17T02:06:19.094Z,1012.88
2018-09-17T02:06:45.260Z,1012.87
2018-09-17T02:07:11.390Z,1012.88
2018-09-17T02:07:37.522Z,1012.85
2018-09-17T02:08:03.681Z,1012.87
2018-09-17T02:08:29.867Z,1012.84
2018-09-17T02:08:56.064Z,1012.87
2018-09-17T02:09:22.144Z,1012.85
2018-09-17T02:09:48.310Z,1012.83
2018-09-17T02:10:14.406Z,1012.88
2018-09-17T02:10:40.545Z,1012.88
2018-09-17T02:11:06.679Z,1012.87
2018-09-17T02:11:32.815Z,1012.88
2018-09-17T02:11:58.941Z,1012.88
2018-09-17T02:12:25.074Z,1012.83
2018-09-17T02:12:51.214Z,1012.88
2018-09-17T02:13:17.347Z,1012.83
2018-09-17T02:13:43.484Z,1012.87
2018-09-17T02:14:09.639Z,1012.86
2018-09-17T02:14:35.771Z,1012.86
2018-09-17T02:15:01.902Z,1012.85
2018-09-17T02:15:28.057Z,1012.89
2018-09-17T02:15:54.190Z,1012.88
2018-09-17T02:16:20.324Z,1012.86
2018-09-17T02:16:46.456Z,1012.94
2018-09-17T02:17:12.616Z,1012.95
2018-09-17T02:17:38.771Z,1012.89
2018-09-17T02:18:04.928Z,1012.93
2018-09-17T02:18:31.069Z,1012.97
2018-09-17T02:18:57.204Z,1012.94
2018-09-17T02:19:23.333Z,1012.98
2018-09-17T02:19:49.492Z,1012.94
2018-09-17T02:20:15.624Z,1012.96
2018-09-17T02:20:41.760Z,1013
2018-09-17T02:21:07.926Z,1012.98
2018-09-17T02:21:34.060Z,1013
2018-09-17T02:22:00.193Z,1012.99
2018-09-17T02:22:26.335Z,1013
2018-09-17T02:22:52.476Z,1013.02
2018-09-17T02:23:18.645Z,1013
2018-09-17T02:23:44.775Z,1013.03
2018-09-17T02:24:10.915Z,1013.03
2018-09-17T02:24:37.043Z,1013.05
2018-09-17T02:25:03.170Z,1013.06
2018-09-17T02:25:29.309Z,1013.09
2018-09-17T02:25:55.466Z,1013.05
2018-09-17T02:26:21.602Z,1013.06
2018-09-17T02:26:47.731Z,1013.09
2018-09-17T02:27:13.880Z,1013.08
2018-09-17T02:27:40.017Z,1013.09
2018-09-17T02:28:06.170Z,1013.07
2018-09-17T02:28:32.306Z,1013.09
2018-09-17T02:28:58.440Z,1013.07
2018-09-17T02:29:24.577Z,1013.08
2018-09-17T02:29:50.748Z,1013.08
2018-09-17T02:30:16.882Z,1013.07
2018-09-17T02:30:43.090Z,1013.11
2018-09-17T02:31:09.222Z,1013.11
2018-09-17T02:31:35.381Z,1013.14
2018-09-17T02:32:01.530Z,1013.09
2018-09-17T02:32:27.691Z,1013.1
2018-09-17T02:32:53.829Z,1013.12
2018-09-17T02:33:19.953Z,1013.16
2018-09-17T02:33:46.092Z,1013.17
2018-09-17T02:34:12.221Z,1013.19
2018-09-17T02:34:38.361Z,1013.19
2018-09-17T02:35:04.520Z,1013.19
2018-09-17T02:35:30.656Z,1013.18
2018-09-17T02:35:56.833Z,1013.2
2018-09-17T02:36:22.970Z,1013.21
2018-09-17T02:36:49.142Z,1013.25
2018-09-17T02:37:15.275Z,1013.22
2018-09-17T02:37:41.428Z,1013.24
2018-09-17T02:38:07.592Z,1013.26
2018-09-17T02:38:33.727Z,1013.26
2018-09-17T02:38:59.910Z,1013.29
2018-09-17T02:39:26.042Z,1013.29
2018-09-17T02:39:52.197Z,1013.29
2018-09-17T02:40:18.375Z,1013.28
2018-09-17T02:40:44.534Z,1013.27
2018-09-17T02:41:10.683Z,1013.3
2018-09-17T02:41:36.843Z,1013.28
2018-09-17T02:42:02.975Z,1013.29
2018-09-17T02:42:29.139Z,1013.26
2018-09-17T02:42:55.291Z,1013.25
2018-09-17T02:43:21.424Z,1013.28
2018-09-17T02:43:47.580Z,1013.23
2018-09-17T02:44:13.758Z,1013.22
2018-09-17T02:44:39.895Z,1013.24
2018-09-17T02:45:06.054Z,1013.25
2018-09-17T02:45:32.195Z,1013.21
2018-09-17T02:45:58.430Z,1013.23
2018-09-17T02:46:24.554Z,1013.23
2018-09-17T02:46:50.713Z,1013.18
2018-09-17T02:47:16.903Z,1013.2
2018-09-17T02:47:43.035Z,1013.21
2018-09-17T02:48:09.167Z,1013.21
2018-09-17T02:48:35.357Z,1013.18
2018-09-17T02:49:01.488Z,1013.19
2018-09-17T02:49:27.622Z,1013.15
2018-09-17T02:49:53.752Z,1013.19
2018-09-17T02:50:19.913Z,1013.21
2018-09-17T02:50:46.048Z,1013.18
2018-09-17T02:51:12.206Z,1013.24
2018-09-17T02:51:38.330Z,1013.22
2018-09-17T02:52:04.492Z,1013.23
2018-09-17T02:52:30.666Z,1013.21
2018-09-17T02:52:56.800Z,1013.24
2018-09-17T02:53:23.015Z,1013.22
2018-09-17T02:53:49.150Z,1013.23
2018-09-17T02:54:15.298Z,1013.23
2018-09-17T02:54:41.432Z,1013.22
2018-09-17T02:55:07.569Z,1013.25
2018-09-17T02:55:33.715Z,1013.22
2018-09-17T02:55:59.871Z,1013.21
2018-09-17T02:56:25.990Z,1013.26
2018-09-17T02:56:52.159Z,1013.27
2018-09-17T02:57:18.302Z,1013.24
2018-09-17T02:57:44.435Z,1013.22
2018-09-17T02:58:10.564Z,1013.24
2018-09-17T02:58:36.699Z,1013.24
2018-09-17T02:59:02.856Z,1013.23
2018-09-17T02:59:28.989Z,1013.26
2018-09-17T02:59:55.128Z,1013.26
2018-09-17T03:00:21.313Z,1013.27
2018-09-17T03:00:47.436Z,1013.28
2018-09-17T03:01:13.574Z,1013.31
2018-09-17T03:01:39.759Z,1013.31
2018-09-17T03:02:05.944Z,1013.31
2018-09-17T03:02:32.123Z,1013.3
2018-09-17T03:02:58.246Z,1013.31
2018-09-17T03:03:24.401Z,1013.29
2018-09-17T03:03:50.536Z,1013.28
2018-09-17T03:04:16.669Z,1013.29
2018-09-17T03:04:42.843Z,1013.3
2018-09-17T03:05:09.001Z,1013.24
2018-09-17T03:05:35.162Z,1013.27
2018-09-17T03:06:01.301Z,1013.25
2018-09-17T03:06:27.450Z,1013.24
2018-09-17T03:06:53.575Z,1013.24
2018-09-17T03:07:19.718Z,1013.26
2018-09-17T03:07:45.871Z,1013.22
2018-09-17T03:08:12.033Z,1013.15
2018-09-17T03:08:38.177Z,1013.17
2018-09-17T03:09:04.354Z,1013.19
2018-09-17T03:09:30.510Z,1013.23
2018-09-17T03:09:56.709Z,1013.19
2018-09-17T03:10:22.869Z,1013.17
2018-09-17T03:10:49.003Z,1013.13
2018-09-17T03:11:15.130Z,1013.14
2018-09-17T03:11:41.296Z,1013.17
2018-09-17T03:12:07.443Z,1013.2
2018-09-17T03:12:33.629Z,1013.19
2018-09-17T03:12:59.758Z,1013.21
2018-09-17T03:13:25.933Z,1013.16
2018-09-17T03:13:52.092Z,1013.2
2018-09-17T03:14:18.252Z,1013.19
2018-09-17T03:14:44.415Z,1013.19
2018-09-17T03:15:10.556Z,1013.17
2018-09-17T03:15:36.673Z,1013.2
2018-09-17T03:16:02.807Z,1013.22
2018-09-17T03:16:28.964Z,1013.23
2018-09-17T03:16:55.092Z,1013.24
2018-09-17T03:17:21.250Z,1013.24
2018-09-17T03:17:47.386Z,1013.24
2018-09-17T03:18:13.511Z,1013.26
2018-09-17T03:18:39.672Z,1013.24
2018-09-17T03:19:05.809Z,1013.23
2018-09-17T03:19:31.938Z,1013.21
2018-09-17T03:19:58.101Z,1013.26
2018-09-17T03:20:24.277Z,1013.27
2018-09-17T03:20:50.412Z,1013.26
2018-09-17T03:21:16.558Z,1013.26
2018-09-17T03:21:42.735Z,1013.25
2018-09-17T03:22:08.880Z,1013.26
2018-09-17T03:22:35.014Z,1013.26
2018-09-17T03:23:01.149Z,1013.25
2018-09-17T03:23:27.287Z,1013.24
2018-09-17T03:23:53.445Z,1013.28
2018-09-17T03:24:19.612Z,1013.29
2018-09-17T03:24:45.759Z,1013.25
2018-09-17T03:25:11.894Z,1013.28
2018-09-17T03:25:38.047Z,1013.33
2018-09-17T03:26:04.181Z,1013.29
2018-09-17T03:26:30.336Z,1013.33
2018-09-17T03:26:56.473Z,1013.26
2018-09-17T03:27:22.601Z,1013.28
2018-09-17T03:27:48.727Z,1013.24
2018-09-17T03:28:14.865Z,1013.27
2018-09-17T03:28:40.997Z,1013.23
2018-09-17T03:29:07.129Z,1013.22
2018-09-17T03:29:33.281Z,1013.19
2018-09-17T03:29:59.460Z,1013.16
2018-09-17T03:30:25.622Z,1013.17
2018-09-17T03:30:51.783Z,1013.2
2018-09-17T03:31:17.916Z,1013.16
2018-09-17T03:31:44.125Z,1013.12
2018-09-17T03:32:10.278Z,1013.13
2018-09-17T03:32:36.462Z,1013.12
2018-09-17T03:33:02.599Z,1013.1
2018-09-17T03:33:28.729Z,1013.1
2018-09-17T03:33:54.873Z,1013.11
2018-09-17T03:34:21.009Z,1013.13
2018-09-17T03:34:47.147Z,1013.1
2018-09-17T03:35:13.297Z,1013.15
2018-09-17T03:35:39.426Z,1013.13
2018-09-17T03:36:05.580Z,1013.14
2018-09-17T03:36:31.733Z,1013.18
2018-09-17T03:36:57.894Z,1013.19
2018-09-17T03:37:24.033Z,1013.2
2018-09-17T03:37:50.163Z,1013.24
2018-09-17T03:38:16.331Z,1013.21
2018-09-17T03:38:42.473Z,1013.2
2018-09-17T03:39:08.603Z,1013.24
2018-09-17T03:39:34.746Z,1013.22
2018-09-17T03:40:00.882Z,1013.2
2018-09-17T03:40:27.061Z,1013.26
2018-09-17T03:40:53.198Z,1013.26
2018-09-17T03:41:19.335Z,1013.25
2018-09-17T03:41:45.501Z,1013.24
2018-09-17T03:42:11.653Z,1013.28
2018-09-17T03:42:37.788Z,1013.27
2018-09-17T03:43:03.931Z,1013.25
2018-09-17T03:43:30.106Z,1013.27
2018-09-17T03:43:56.236Z,1013.24
2018-09-17T03:44:22.404Z,1013.26
2018-09-17T03:44:48.555Z,1013.25
2018-09-17T03:45:14.742Z,1013.26
2018-09-17T03:45:40.902Z,1013.26
2018-09-17T03:46:07.070Z,1013.24
2018-09-17T03:46:33.300Z,1013.23
2018-09-17T03:46:59.341Z,1013.22
2018-09-17T03:47:25.493Z,1013.19
2018-09-17T03:47:51.633Z,1013.22
2018-09-17T03:48:17.765Z,1013.19
2018-09-17T03:48:43.915Z,1013.21
2018-09-17T03:49:10.049Z,1013.17
2018-09-17T03:49:36.183Z,1013.17
2018-09-17T03:50:02.338Z,1013.2
2018-09-17T03:50:28.472Z,1013.17
2018-09-17T03:50:54.611Z,1013.15
2018-09-17T03:51:20.745Z,1013.15
2018-09-17T03:51:46.877Z,1013.18
2018-09-17T03:52:13.024Z,1013.18
2018-09-17T03:52:39.159Z,1013.17
2018-09-17T03:53:05.288Z,1013.19
2018-09-17T03:53:31.457Z,1013.2
2018-09-17T03:53:57.607Z,1013.17
2018-09-17T03:54:23.761Z,1013.17
2018-09-17T03:54:49.893Z,1013.16
2018-09-17T03:55:16.027Z,1013.16
2018-09-17T03:55:42.163Z,1013.16
2018-09-17T03:56:08.291Z,1013.16
2018-09-17T03:56:34.423Z,1013.18
2018-09-17T03:57:00.561Z,1013.14
2018-09-17T03:57:26.693Z,1013.15
2018-09-17T03:57:52.854Z,1013.15
2018-09-17T03:58:18.991Z,1013.14
2018-09-17T03:58:45.170Z,1013.15
2018-09-17T03:59:11.334Z,1013.16
2018-09-17T03:59:37.467Z,1013.15
2018-09-17T04:00:03.621Z,1013.14
2018-09-17T04:00:29.760Z,1013.12
2018-09-17T04:00:55.895Z,1013.15
2018-09-17T04:01:22.035Z,1013.15
2018-09-17T04:01:48.171Z,1013.16
2018-09-17T04:02:14.302Z,1013.11
2018-09-17T04:02:40.434Z,1013.15
2018-09-17T04:03:06.567Z,1013.16
2018-09-17T04:03:32.713Z,1013.13
2018-09-17T04:03:58.877Z,1013.16
2018-09-17T04:04:25.019Z,1013.13
2018-09-17T04:04:51.151Z,1013.16
2018-09-17T04:05:17.286Z,1013.21
2018-09-17T04:05:43.415Z,1013.15
2018-09-17T04:06:09.571Z,1013.2
2018-09-17T04:06:35.710Z,1013.18
2018-09-17T04:07:01.870Z,1013.2
2018-09-17T04:07:28.002Z,1013.19
2018-09-17T04:07:54.139Z,1013.21
2018-09-17T04:08:20.272Z,1013.22
2018-09-17T04:08:46.405Z,1013.2
2018-09-17T04:09:12.556Z,1013.19
2018-09-17T04:09:38.674Z,1013.2
2018-09-17T04:10:04.807Z,1013.19
2018-09-17T04:10:30.942Z,1013.17
2018-09-17T04:10:57.079Z,1013.2
2018-09-17T04:11:23.254Z,1013.18
2018-09-17T04:11:49.389Z,1013.17
2018-09-17T04:12:15.544Z,1013.19
2018-09-17T04:12:41.684Z,1013.16
2018-09-17T04:13:07.834Z,1013.16
2018-09-17T04:13:33.991Z,1013.12
2018-09-17T04:14:00.123Z,1013.13
2018-09-17T04:14:26.259Z,1013.16
2018-09-17T04:14:52.388Z,1013.16
2018-09-17T04:15:18.522Z,1013.16
2018-09-17T04:15:44.683Z,1013.17
2018-09-17T04:16:10.844Z,1013.17
2018-09-17T04:16:36.978Z,1013.22
2018-09-17T04:17:03.107Z,1013.19
2018-09-17T04:17:29.230Z,1013.17
2018-09-17T04:17:55.363Z,1013.18
2018-09-17T04:18:21.503Z,1013.18
2018-09-17T04:18:47.657Z,1013.17
2018-09-17T04:19:13.784Z,1013.2
2018-09-17T04:19:39.914Z,1013.2
2018-09-17T04:20:06.057Z,1013.21
2018-09-17T04:20:32.187Z,1013.18
2018-09-17T04:20:58.318Z,1013.17
2018-09-17T04:21:24.453Z,1013.17
2018-09-17T04:21:50.612Z,1013.18
2018-09-17T04:22:16.743Z,1013.16
2018-09-17T04:22:42.901Z,1013.2
2018-09-17T04:23:09.060Z,1013.19
2018-09-17T04:23:35.196Z,1013.21
2018-09-17T04:24:01.329Z,1013.17
2018-09-17T04:24:27.467Z,1013.19
2018-09-17T04:24:53.629Z,1013.2
2018-09-17T04:25:19.763Z,1013.21
2018-09-17T04:25:45.893Z,1013.21
2018-09-17T04:26:12.054Z,1013.19
2018-09-17T04:26:38.185Z,1013.21
2018-09-17T04:27:04.312Z,1013.19
2018-09-17T04:27:30.456Z,1013.19
2018-09-17T04:27:56.591Z,1013.21
2018-09-17T04:28:22.716Z,1013.19
2018-09-17T04:28:48.876Z,1013.23
2018-09-17T04:29:15.011Z,1013.2
2018-09-17T04:29:41.147Z,1013.21
2018-09-17T04:30:07.300Z,1013.19
2018-09-17T04:30:33.422Z,1013.18
2018-09-17T04:30:59.564Z,1013.19
2018-09-17T04:31:25.738Z,1013.19
2018-09-17T04:31:51.818Z,1013.18
2018-09-17T04:32:17.948Z,1013.14
2018-09-17T04:32:44.100Z,1013.15
2018-09-17T04:33:10.327Z,1013.18
2018-09-17T04:33:36.408Z,1013.19
2018-09-17T04:34:02.544Z,1013.14
2018-09-17T04:34:28.675Z,1013.17
2018-09-17T04:34:54.805Z,1013.15
2018-09-17T04:35:20.994Z,1013.15
2018-09-17T04:35:47.120Z,1013.16
2018-09-17T04:36:13.263Z,1013.16
2018-09-17T04:36:39.396Z,1013.19
2018-09-17T04:37:05.707Z,1013.17
2018-09-17T04:37:31.842Z,1013.15
2018-09-17T04:37:57.975Z,1013.16
2018-09-17T04:38:24.126Z,1013.17
2018-09-17T04:38:50.262Z,1013.17
2018-09-17T04:39:16.390Z,1013.17
2018-09-17T04:39:42.618Z,1013.2
2018-09-17T04:40:08.689Z,1013.2
2018-09-17T04:40:34.819Z,1013.19
2018-09-17T04:41:00.954Z,1013.16
2018-09-17T04:41:27.087Z,1013.17
2018-09-17T04:41:53.225Z,1013.19
2018-09-17T04:42:19.374Z,1013.18
2018-09-17T04:42:45.511Z,1013.19
2018-09-17T04:43:11.642Z,1013.16
2018-09-17T04:43:37.779Z,1013.18
2018-09-17T04:44:03.928Z,1013.17
2018-09-17T04:44:30.114Z,1013.2
2018-09-17T04:44:56.246Z,1013.22
2018-09-17T04:45:22.396Z,1013.18
2018-09-17T04:45:48.538Z,1013.21
2018-09-17T04:46:14.693Z,1013.23
2018-09-17T04:46:40.821Z,1013.23
2018-09-17T04:47:06.957Z,1013.19
2018-09-17T04:47:33.111Z,1013.22
2018-09-17T04:47:59.249Z,1013.22
2018-09-17T04:48:25.385Z,1013.23
2018-09-17T04:48:51.516Z,1013.27
2018-09-17T04:49:17.649Z,1013.27
2018-09-17T04:49:43.789Z,1013.24
2018-09-17T04:50:09.951Z,1013.23
2018-09-17T04:50:36.084Z,1013.26
2018-09-17T04:51:02.214Z,1013.24
2018-09-17T04:51:28.344Z,1013.24
2018-09-17T04:51:54.478Z,1013.23
2018-09-17T04:52:20.611Z,1013.3
2018-09-17T04:52:46.746Z,1013.24
2018-09-17T04:53:12.880Z,1013.29
2018-09-17T04:53:39.041Z,1013.26
2018-09-17T04:54:05.201Z,1013.3
2018-09-17T04:54:31.327Z,1013.32
2018-09-17T04:54:57.452Z,1013.3
2018-09-17T04:55:23.594Z,1013.28
2018-09-17T04:55:49.728Z,1013.32
2018-09-17T04:56:15.860Z,1013.33
2018-09-17T04:56:41.991Z,1013.31
2018-09-17T04:57:08.125Z,1013.31
2018-09-17T04:57:34.278Z,1013.31
2018-09-17T04:58:00.432Z,1013.31
2018-09-17T04:58:26.598Z,1013.32
2018-09-17T04:58:52.732Z,1013.32
2018-09-17T04:59:18.865Z,1013.31
2018-09-17T04:59:44.997Z,1013.32
2018-09-17T05:00:11.160Z,1013.34
2018-09-17T05:00:37.290Z,1013.31
2018-09-17T05:01:03.446Z,1013.33
2018-09-17T05:01:29.605Z,1013.33
2018-09-17T05:01:55.750Z,1013.3
2018-09-17T05:02:21.873Z,1013.33
2018-09-17T05:02:48.027Z,1013.3
2018-09-17T05:03:14.166Z,1013.28
2018-09-17T05:03:40.295Z,1013.3
2018-09-17T05:04:06.454Z,1013.29
2018-09-17T05:04:32.592Z,1013.35
2018-09-17T05:04:58.719Z,1013.31
2018-09-17T05:05:24.848Z,1013.33
2018-09-17T05:05:51.013Z,1013.34
2018-09-17T05:06:17.149Z,1013.36
2018-09-17T05:06:43.284Z,1013.34
2018-09-17T05:07:09.417Z,1013.34
2018-09-17T05:07:35.573Z,1013.38
2018-09-17T05:08:01.711Z,1013.41
2018-09-17T05:08:27.842Z,1013.4
2018-09-17T05:08:53.983Z,1013.43
2018-09-17T05:09:20.110Z,1013.43
2018-09-17T05:09:46.240Z,1013.42
2018-09-17T05:10:12.377Z,1013.42
2018-09-17T05:10:38.519Z,1013.44
2018-09-17T05:11:04.649Z,1013.47
2018-09-17T05:11:30.776Z,1013.48
2018-09-17T05:11:56.915Z,1013.44
2018-09-17T05:12:23.069Z,1013.49
2018-09-17T05:12:49.276Z,1013.47
2018-09-17T05:13:15.420Z,1013.48
2018-09-17T05:13:41.548Z,1013.47
2018-09-17T05:14:07.679Z,1013.49
2018-09-17T05:14:33.837Z,1013.49
2018-09-17T05:14:59.968Z,1013.46
2018-09-17T05:15:26.108Z,1013.5
2018-09-17T05:15:52.240Z,1013.48
2018-09-17T05:16:18.371Z,1013.51
2018-09-17T05:16:44.529Z,1013.52
2018-09-17T05:17:10.690Z,1013.48
2018-09-17T05:17:36.845Z,1013.48